Merrill, Mississippi
Current Conditions -  °F | °C
As of 4:56 PM on Tuesday 21 Oct 2014 (Local Time) from KMOB Reporting Station
Few Clouds Few Clouds  
Wind Chill: 79°   Ceiling: Unl
Heat Index: 79°   Visibility: 10mi
Dew Point: 50°   Wind: 9mph
Humidity: 36%   Direction: 360°N
Pressure: 29.97"   Gusts: NA
Location:  30.8443°N, 88.5703°W
Report Text: KMOB 212156Z 36008KT 10SM FEW200 26/10 A2997 RMK AO2 SLP146 T02610100
Loading
Personal Weather Stations






























Interactive Weather Map
Tropical Storm Tracking
New forecast layout! Learn more

10-Day Weather Forecast

Advertisements
Track Severe Weather on mobile